sensor_id;sensor_type;location;lat;lon;timestamp;P1;durP1;ratioP1;P2;durP2;ratioP2
63818;SDS011;49970;54.976;73.248;2024-03-23T00:55:19;15.25;;;8.85;;
63818;SDS011;49970;54.976;73.248;2024-03-23T00:57:46;22.55;;;10.50;;
63818;SDS011;49970;54.976;73.248;2024-03-23T01:00:12;14.98;;;8.68;;
63818;SDS011;49970;54.976;73.248;2024-03-23T01:02:39;15.93;;;9.30;;
63818;SDS011;49970;54.976;73.248;2024-03-23T01:05:05;22.20;;;10.43;;
63818;SDS011;49970;54.976;73.248;2024-03-23T01:07:32;19.90;;;9.25;;
63818;SDS011;49970;54.976;73.248;2024-03-23T01:09:58;15.60;;;10.05;;
63818;SDS011;49970;54.976;73.248;2024-03-23T01:12:24;13.70;;;9.15;;
63818;SDS011;49970;54.976;73.248;2024-03-23T01:14:51;20.90;;;10.00;;
63818;SDS011;49970;54.976;73.248;2024-03-23T01:17:17;14.77;;;9.98;;
63818;SDS011;49970;54.976;73.248;2024-03-23T01:19:43;15.88;;;10.07;;
63818;SDS011;49970;54.976;73.248;2024-03-23T01:22:09;17.10;;;9.43;;
63818;SDS011;49970;54.976;73.248;2024-03-23T01:24:36;19.08;;;10.40;;
63818;SDS011;49970;54.976;73.248;2024-03-23T01:27:02;16.80;;;9.73;;
63818;SDS011;49970;54.976;73.248;2024-03-23T01:29:29;18.90;;;9.85;;
63818;SDS011;49970;54.976;73.248;2024-03-23T01:31:55;20.50;;;9.45;;
63818;SDS011;49970;54.976;73.248;2024-03-23T01:34:22;20.10;;;9.43;;
63818;SDS011;49970;54.976;73.248;2024-03-23T01:36:48;27.10;;;9.82;;
63818;SDS011;49970;54.976;73.248;2024-03-23T01:39:14;21.67;;;9.02;;
63818;SDS011;49970;54.976;73.248;2024-03-23T01:41:41;17.50;;;9.48;;
63818;SDS011;49970;54.976;73.248;2024-03-23T01:44:11;14.90;;;9.82;;
63818;SDS011;49970;54.976;73.248;2024-03-23T01:46:37;20.52;;;9.63;;
63818;SDS011;49970;54.976;73.248;2024-03-23T01:49:04;16.20;;;9.65;;
63818;SDS011;49970;54.976;73.248;2024-03-23T01:51:31;15.40;;;10.07;;
63818;SDS011;49970;54.976;73.248;2024-03-23T01:53:59;17.88;;;9.93;;
63818;SDS011;49970;54.976;73.248;2024-03-23T01:56:32;16.85;;;9.93;;
63818;SDS011;49970;54.976;73.248;2024-03-23T01:59:04;17.80;;;9.35;;
63818;SDS011;49970;54.976;73.248;2024-03-23T02:01:31;17.23;;;8.73;;
63818;SDS011;49970;54.976;73.248;2024-03-23T02:03:58;15.27;;;8.73;;
63818;SDS011;49970;54.976;73.248;2024-03-23T02:06:24;17.25;;;10.00;;
63818;SDS011;49970;54.976;73.248;2024-03-23T02:08:51;17.17;;;10.00;;
63818;SDS011;49970;54.976;73.248;2024-03-23T02:11:17;23.42;;;10.63;;
63818;SDS011;49970;54.976;73.248;2024-03-23T02:13:44;28.65;;;10.80;;
63818;SDS011;49970;54.976;73.248;2024-03-23T02:16:10;21.17;;;10.65;;
63818;SDS011;49970;54.976;73.248;2024-03-23T02:18:37;16.75;;;9.15;;
63818;SDS011;49970;54.976;73.248;2024-03-23T02:21:03;20.77;;;9.20;;
63818;SDS011;49970;54.976;73.248;2024-03-23T02:23:30;16.95;;;8.93;;
63818;SDS011;49970;54.976;73.248;2024-03-23T02:25:56;15.23;;;9.25;;
63818;SDS011;49970;54.976;73.248;2024-03-23T02:28:23;18.75;;;9.10;;
63818;SDS011;49970;54.976;73.248;2024-03-23T02:30:49;16.75;;;8.85;;
63818;SDS011;49970;54.976;73.248;2024-03-23T02:33:16;15.23;;;8.93;;
63818;SDS011;49970;54.976;73.248;2024-03-23T02:35:43;21.25;;;9.05;;
63818;SDS011;49970;54.976;73.248;2024-03-23T02:38:10;15.32;;;8.10;;
63818;SDS011;49970;54.976;73.248;2024-03-23T02:40:37;21.35;;;8.77;;
63818;SDS011;49970;54.976;73.248;2024-03-23T02:43:03;23.13;;;8.32;;
63818;SDS011;49970;54.976;73.248;2024-03-23T02:45:30;24.73;;;8.65;;
63818;SDS011;49970;54.976;73.248;2024-03-23T02:47:56;15.88;;;7.75;;
63818;SDS011;49970;54.976;73.248;2024-03-23T02:50:23;24.13;;;9.73;;
63818;SDS011;49970;54.976;73.248;2024-03-23T02:52:49;17.75;;;8.10;;
63818;SDS011;49970;54.976;73.248;2024-03-23T02:55:16;21.50;;;8.57;;
63818;SDS011;49970;54.976;73.248;2024-03-23T02:57:42;16.17;;;8.77;;
63818;SDS011;49970;54.976;73.248;2024-03-23T03:00:09;20.00;;;8.45;;
63818;SDS011;49970;54.976;73.248;2024-03-23T03:02:36;14.25;;;8.73;;
63818;SDS011;49970;54.976;73.248;2024-03-23T03:06:07;14.98;;;8.02;;
63818;SDS011;49970;54.976;73.248;2024-03-23T03:08:35;15.18;;;8.57;;
63818;SDS011;49970;54.976;73.248;2024-03-23T03:11:01;18.85;;;8.82;;
63818;SDS011;49970;54.976;73.248;2024-03-23T03:13:27;18.83;;;9.32;;
63818;SDS011;49970;54.976;73.248;2024-03-23T03:15:54;19.90;;;8.23;;
63818;SDS011;49970;54.976;73.248;2024-03-23T03:19:25;17.33;;;8.85;;
63818;SDS011;49970;54.976;73.248;2024-03-23T03:24:08;17.52;;;7.35;;
63818;SDS011;49970;54.976;73.248;2024-03-23T03:26:35;15.80;;;8.50;;
63818;SDS011;49970;54.976;73.248;2024-03-23T03:32:57;18.98;;;7.72;;
63818;SDS011;49970;54.976;73.248;2024-03-23T03:35:24;16.98;;;6.95;;
63818;SDS011;49970;54.976;73.248;2024-03-23T03:37:50;20.15;;;7.45;;
63818;SDS011;49970;54.976;73.248;2024-03-23T03:40:17;18.90;;;8.05;;
63818;SDS011;49970;54.976;73.248;2024-03-23T03:47:24;18.30;;;6.78;;
63818;SDS011;49970;54.976;73.248;2024-03-23T03:49:50;20.83;;;6.78;;
63818;SDS011;49970;54.976;73.248;2024-03-23T03:52:17;22.02;;;8.02;;
63818;SDS011;49970;54.976;73.248;2024-03-23T03:54:43;19.02;;;7.68;;
63818;SDS011;49970;54.976;73.248;2024-03-23T03:57:09;20.85;;;7.57;;
63818;SDS011;49970;54.976;73.248;2024-03-23T03:59:36;13.95;;;6.82;;
63818;SDS011;49970;54.976;73.248;2024-03-23T04:02:02;19.45;;;7.55;;
63818;SDS011;49970;54.976;73.248;2024-03-23T04:04:29;16.15;;;6.68;;
63818;SDS011;49970;54.976;73.248;2024-03-23T04:07:01;15.73;;;6.18;;
63818;SDS011;49970;54.976;73.248;2024-03-23T04:09:28;14.70;;;7.25;;
63818;SDS011;49970;54.976;73.248;2024-03-23T04:11:56;20.52;;;6.70;;
63818;SDS011;49970;54.976;73.248;2024-03-23T04:15:28;10.82;;;6.28;;
63818;SDS011;49970;54.976;73.248;2024-03-23T04:19:01;9.75;;;5.57;;
63818;SDS011;49970;54.976;73.248;2024-03-23T04:22:33;10.02;;;6.05;;
63818;SDS011;49970;54.976;73.248;2024-03-23T04:26:06;18.90;;;6.82;;
63818;SDS011;49970;54.976;73.248;2024-03-23T04:29:39;18.65;;;6.78;;
63818;SDS011;49970;54.976;73.248;2024-03-23T04:33:12;15.55;;;6.60;;
63818;SDS011;49970;54.976;73.248;2024-03-23T04:36:44;23.50;;;7.50;;
63818;SDS011;49970;54.976;73.248;2024-03-23T04:40:17;15.48;;;6.43;;
63818;SDS011;49970;54.976;73.248;2024-03-23T04:43:50;23.50;;;8.13;;
63818;SDS011;49970;54.976;73.248;2024-03-23T04:47:22;19.83;;;6.30;;
63818;SDS011;49970;54.976;73.248;2024-03-23T04:50:57;11.02;;;5.13;;
63818;SDS011;49970;54.976;73.248;2024-03-23T04:54:37;16.25;;;6.20;;
63818;SDS011;49970;54.976;73.248;2024-03-23T04:58:09;17.02;;;6.60;;
63818;SDS011;49970;54.976;73.248;2024-03-23T05:01:41;27.17;;;7.07;;
63818;SDS011;49970;54.976;73.248;2024-03-23T05:05:15;17.42;;;7.22;;
63818;SDS011;49970;54.976;73.248;2024-03-23T05:08:49;8.15;;;5.60;;
63818;SDS011;49970;54.976;73.248;2024-03-23T05:11:15;14.77;;;5.80;;
63818;SDS011;49970;54.976;73.248;2024-03-23T05:13:42;14.90;;;6.20;;
63818;SDS011;49970;54.976;73.248;2024-03-23T05:20:49;11.43;;;6.63;;
63818;SDS011;49970;54.976;73.248;2024-03-23T05:25:35;13.65;;;6.28;;
63818;SDS011;49970;54.976;73.248;2024-03-23T05:29:33;14.15;;;6.10;;
63818;SDS011;49970;54.976;73.248;2024-03-23T05:33:29;14.95;;;5.93;;
63818;SDS011;49970;54.976;73.248;2024-03-23T05:37:25;15.30;;;6.03;;
63818;SDS011;49970;54.976;73.248;2024-03-23T05:44:32;6.38;;;4.82;;
63818;SDS011;49970;54.976;73.248;2024-03-23T05:46:59;11.48;;;5.70;;
63818;SDS011;49970;54.976;73.248;2024-03-23T05:49:25;7.25;;;4.85;;
63818;SDS011;49970;54.976;73.248;2024-03-23T05:51:52;7.28;;;5.40;;
63818;SDS011;49970;54.976;73.248;2024-03-23T05:54:18;17.17;;;6.38;;
63818;SDS011;49970;54.976;73.248;2024-03-23T05:56:45;15.32;;;5.75;;
63818;SDS011;49970;54.976;73.248;2024-03-23T05:59:11;8.88;;;5.57;;
63818;SDS011;49970;54.976;73.248;2024-03-23T06:01:37;8.68;;;4.80;;
63818;SDS011;49970;54.976;73.248;2024-03-23T06:04:04;8.20;;;4.65;;
63818;SDS011;49970;54.976;73.248;2024-03-23T06:06:31;15.32;;;5.35;;
63818;SDS011;49970;54.976;73.248;2024-03-23T06:08:57;13.63;;;4.90;;
63818;SDS011;49970;54.976;73.248;2024-03-23T06:11:23;9.73;;;5.68;;
63818;SDS011;49970;54.976;73.248;2024-03-23T06:13:52;15.02;;;5.50;;
63818;SDS011;49970;54.976;73.248;2024-03-23T06:16:18;15.27;;;5.63;;
63818;SDS011;49970;54.976;73.248;2024-03-23T06:18:49;12.15;;;4.90;;
63818;SDS011;49970;54.976;73.248;2024-03-23T06:21:18;9.05;;;5.00;;
63818;SDS011;49970;54.976;73.248;2024-03-23T06:23:45;10.93;;;5.35;;
63818;SDS011;49970;54.976;73.248;2024-03-23T06:26:17;13.00;;;4.82;;
63818;SDS011;49970;54.976;73.248;2024-03-23T06:28:44;16.58;;;4.97;;
63818;SDS011;49970;54.976;73.248;2024-03-23T06:31:11;10.45;;;5.40;;
63818;SDS011;49970;54.976;73.248;2024-03-23T06:33:38;7.82;;;4.60;;
63818;SDS011;49970;54.976;73.248;2024-03-23T06:37:08;11.98;;;4.80;;
63818;SDS011;49970;54.976;73.248;2024-03-23T06:40:39;10.57;;;5.30;;
63818;SDS011;49970;54.976;73.248;2024-03-23T06:44:10;12.07;;;5.03;;
63818;SDS011;49970;54.976;73.248;2024-03-23T06:46:36;11.82;;;5.03;;
63818;SDS011;49970;54.976;73.248;2024-03-23T06:49:03;11.80;;;4.80;;
63818;SDS011;49970;54.976;73.248;2024-03-23T06:51:29;10.25;;;4.47;;
63818;SDS011;49970;54.976;73.248;2024-03-23T06:53:55;8.65;;;4.13;;
63818;SDS011;49970;54.976;73.248;2024-03-23T06:56:22;15.02;;;5.97;;
63818;SDS011;49970;54.976;73.248;2024-03-23T06:58:48;15.20;;;6.28;;
63818;SDS011;49970;54.976;73.248;2024-03-23T07:01:14;11.18;;;5.03;;
63818;SDS011;49970;54.976;73.248;2024-03-23T07:03:40;9.23;;;3.88;;
63818;SDS011;49970;54.976;73.248;2024-03-23T07:06:09;9.45;;;4.43;;
63818;SDS011;49970;54.976;73.248;2024-03-23T07:08:36;8.90;;;5.47;;
63818;SDS011;49970;54.976;73.248;2024-03-23T07:11:02;7.38;;;4.43;;
63818;SDS011;49970;54.976;73.248;2024-03-23T07:13:29;6.88;;;4.22;;
63818;SDS011;49970;54.976;73.248;2024-03-23T07:15:55;11.02;;;4.40;;
63818;SDS011;49970;54.976;73.248;2024-03-23T07:18:23;7.75;;;4.55;;
63818;SDS011;49970;54.976;73.248;2024-03-23T07:20:55;9.18;;;4.13;;
63818;SDS011;49970;54.976;73.248;2024-03-23T07:23:22;10.07;;;3.72;;
63818;SDS011;49970;54.976;73.248;2024-03-23T07:25:56;10.45;;;4.70;;
63818;SDS011;49970;54.976;73.248;2024-03-23T07:28:25;8.45;;;3.97;;
63818;SDS011;49970;54.976;73.248;2024-03-23T07:31:01;7.22;;;3.67;;
63818;SDS011;49970;54.976;73.248;2024-03-23T07:33:32;7.43;;;4.30;;
63818;SDS011;49970;54.976;73.248;2024-03-23T07:35:59;9.48;;;4.50;;
63818;SDS011;49970;54.976;73.248;2024-03-23T07:38:26;12.32;;;3.72;;
63818;SDS011;49970;54.976;73.248;2024-03-23T07:41:03;8.00;;;4.18;;
63818;SDS011;49970;54.976;73.248;2024-03-23T07:43:39;10.70;;;4.32;;
63818;SDS011;49970;54.976;73.248;2024-03-23T07:46:09;5.68;;;3.97;;
63818;SDS011;49970;54.976;73.248;2024-03-23T07:48:35;10.07;;;3.63;;
63818;SDS011;49970;54.976;73.248;2024-03-23T07:51:02;9.45;;;4.32;;
63818;SDS011;49970;54.976;73.248;2024-03-23T07:53:30;14.23;;;4.38;;
63818;SDS011;49970;54.976;73.248;2024-03-23T07:55:58;8.27;;;4.60;;
63818;SDS011;49970;54.976;73.248;2024-03-23T07:58:26;10.82;;;4.15;;
63818;SDS011;49970;54.976;73.248;2024-03-23T08:00:53;7.32;;;4.00;;
63818;SDS011;49970;54.976;73.248;2024-03-23T08:03:20;9.88;;;4.35;;
63818;SDS011;49970;54.976;73.248;2024-03-23T08:05:46;11.05;;;4.50;;
63818;SDS011;49970;54.976;73.248;2024-03-23T08:08:13;10.43;;;3.90;;
63818;SDS011;49970;54.976;73.248;2024-03-23T08:10:49;6.95;;;3.72;;
63818;SDS011;49970;54.976;73.248;2024-03-23T08:13:17;13.32;;;3.90;;
63818;SDS011;49970;54.976;73.248;2024-03-23T08:15:44;13.75;;;4.50;;
63818;SDS011;49970;54.976;73.248;2024-03-23T08:18:15;8.43;;;4.60;;
63818;SDS011;49970;54.976;73.248;2024-03-23T08:20:41;10.55;;;3.80;;
63818;SDS011;49970;54.976;73.248;2024-03-23T08:23:08;11.43;;;4.35;;
63818;SDS011;49970;54.976;73.248;2024-03-23T08:25:35;4.88;;;3.33;;
63818;SDS011;49970;54.976;73.248;2024-03-23T08:28:01;14.48;;;4.53;;
63818;SDS011;49970;54.976;73.248;2024-03-23T08:30:27;8.18;;;4.05;;
63818;SDS011;49970;54.976;73.248;2024-03-23T08:32:55;7.53;;;4.07;;
63818;SDS011;49970;54.976;73.248;2024-03-23T08:35:21;9.55;;;4.38;;
63818;SDS011;49970;54.976;73.248;2024-03-23T08:37:47;6.22;;;3.10;;
63818;SDS011;49970;54.976;73.248;2024-03-23T08:40:14;8.80;;;3.70;;
63818;SDS011;49970;54.976;73.248;2024-03-23T08:42:40;9.68;;;3.50;;
63818;SDS011;49970;54.976;73.248;2024-03-23T08:45:07;13.43;;;3.30;;
63818;SDS011;49970;54.976;73.248;2024-03-23T08:47:36;5.53;;;3.72;;
63818;SDS011;49970;54.976;73.248;2024-03-23T08:50:03;8.35;;;3.83;;
63818;SDS011;49970;54.976;73.248;2024-03-23T08:52:29;4.97;;;3.65;;
63818;SDS011;49970;54.976;73.248;2024-03-23T08:54:56;13.43;;;4.22;;
63818;SDS011;49970;54.976;73.248;2024-03-23T08:57:23;6.82;;;4.03;;
63818;SDS011;49970;54.976;73.248;2024-03-23T08:59:49;11.55;;;3.80;;
63818;SDS011;49970;54.976;73.248;2024-03-23T09:02:16;10.32;;;3.85;;
63818;SDS011;49970;54.976;73.248;2024-03-23T09:04:43;16.58;;;3.50;;
63818;SDS011;49970;54.976;73.248;2024-03-23T09:07:10;7.93;;;4.13;;
63818;SDS011;49970;54.976;73.248;2024-03-23T09:09:40;5.68;;;3.80;;
63818;SDS011;49970;54.976;73.248;2024-03-23T09:12:06;9.80;;;3.50;;
63818;SDS011;49970;54.976;73.248;2024-03-23T09:14:33;8.68;;;3.67;;
63818;SDS011;49970;54.976;73.248;2024-03-23T09:17:00;10.68;;;3.20;;
63818;SDS011;49970;54.976;73.248;2024-03-23T09:19:29;7.97;;;3.35;;
63818;SDS011;49970;54.976;73.248;2024-03-23T09:21:55;11.60;;;3.80;;
63818;SDS011;49970;54.976;73.248;2024-03-23T09:24:22;9.55;;;3.63;;
63818;SDS011;49970;54.976;73.248;2024-03-23T09:26:48;11.18;;;3.50;;
63818;SDS011;49970;54.976;73.248;2024-03-23T09:29:15;4.63;;;3.50;;
63818;SDS011;49970;54.976;73.248;2024-03-23T09:31:41;3.90;;;2.97;;
63818;SDS011;49970;54.976;73.248;2024-03-23T09:34:07;8.40;;;3.25;;
63818;SDS011;49970;54.976;73.248;2024-03-23T09:36:34;5.18;;;3.28;;
63818;SDS011;49970;54.976;73.248;2024-03-23T09:39:00;9.77;;;3.95;;
63818;SDS011;49970;54.976;73.248;2024-03-23T09:41:26;12.05;;;2.65;;
63818;SDS011;49970;54.976;73.248;2024-03-23T09:43:53;8.63;;;3.22;;
63818;SDS011;49970;54.976;73.248;2024-03-23T09:46:19;5.47;;;3.00;;
63818;SDS011;49970;54.976;73.248;2024-03-23T09:48:46;10.25;;;3.88;;
63818;SDS011;49970;54.976;73.248;2024-03-23T09:51:13;5.70;;;3.70;;
63818;SDS011;49970;54.976;73.248;2024-03-23T09:53:39;7.30;;;4.03;;
63818;SDS011;49970;54.976;73.248;2024-03-23T09:56:07;10.82;;;3.45;;
63818;SDS011;49970;54.976;73.248;2024-03-23T09:58:34;7.60;;;3.17;;
63818;SDS011;49970;54.976;73.248;2024-03-23T10:01:01;15.73;;;4.00;;
63818;SDS011;49970;54.976;73.248;2024-03-23T10:03:28;5.63;;;3.50;;
63818;SDS011;49970;54.976;73.248;2024-03-23T10:06:01;12.13;;;4.03;;
63818;SDS011;49970;54.976;73.248;2024-03-23T10:08:28;7.25;;;3.83;;
63818;SDS011;49970;54.976;73.248;2024-03-23T10:10:56;14.00;;;4.05;;
63818;SDS011;49970;54.976;73.248;2024-03-23T10:13:23;9.40;;;3.78;;
63818;SDS011;49970;54.976;73.248;2024-03-23T10:15:54;10.73;;;4.13;;
63818;SDS011;49970;54.976;73.248;2024-03-23T10:18:24;6.10;;;4.05;;
63818;SDS011;49970;54.976;73.248;2024-03-23T10:20:52;6.97;;;4.43;;
63818;SDS011;49970;54.976;73.248;2024-03-23T10:23:32;13.18;;;4.45;;
63818;SDS011;49970;54.976;73.248;2024-03-23T10:26:18;17.60;;;5.90;;
63818;SDS011;49970;54.976;73.248;2024-03-23T10:28:52;8.60;;;4.63;;
63818;SDS011;49970;54.976;73.248;2024-03-23T10:31:18;16.83;;;5.70;;
63818;SDS011;49970;54.976;73.248;2024-03-23T10:33:46;13.05;;;5.53;;
63818;SDS011;49970;54.976;73.248;2024-03-23T10:36:13;10.18;;;4.95;;
63818;SDS011;49970;54.976;73.248;2024-03-23T10:39:44;8.35;;;5.18;;
63818;SDS011;49970;54.976;73.248;2024-03-23T10:42:10;7.97;;;5.35;;
63818;SDS011;49970;54.976;73.248;2024-03-23T10:44:37;17.25;;;5.85;;
63818;SDS011;49970;54.976;73.248;2024-03-23T10:47:04;7.95;;;4.90;;
63818;SDS011;49970;54.976;73.248;2024-03-23T10:50:35;7.72;;;4.88;;
63818;SDS011;49970;54.976;73.248;2024-03-23T10:53:01;12.52;;;4.82;;
63818;SDS011;49970;54.976;73.248;2024-03-23T10:55:28;10.40;;;4.55;;
63818;SDS011;49970;54.976;73.248;2024-03-23T10:57:56;7.45;;;4.90;;
63818;SDS011;49970;54.976;73.248;2024-03-23T11:00:25;16.38;;;5.03;;
63818;SDS011;49970;54.976;73.248;2024-03-23T11:02:52;7.00;;;4.28;;
63818;SDS011;49970;54.976;73.248;2024-03-23T11:05:28;11.00;;;5.30;;
63818;SDS011;49970;54.976;73.248;2024-03-23T11:07:55;11.95;;;5.22;;
63818;SDS011;49970;54.976;73.248;2024-03-23T11:10:25;9.15;;;5.20;;
63818;SDS011;49970;54.976;73.248;2024-03-23T11:12:55;11.70;;;4.77;;
63818;SDS011;49970;54.976;73.248;2024-03-23T11:15:41;9.60;;;5.45;;
63818;SDS011;49970;54.976;73.248;2024-03-23T11:19:37;12.45;;;6.30;;
63818;SDS011;49970;54.976;73.248;2024-03-23T11:22:04;10.52;;;5.78;;
63818;SDS011;49970;54.976;73.248;2024-03-23T11:24:31;12.90;;;6.70;;
63818;SDS011;49970;54.976;73.248;2024-03-23T11:26:58;11.52;;;5.80;;
63818;SDS011;49970;54.976;73.248;2024-03-23T11:29:29;11.23;;;5.70;;
63818;SDS011;49970;54.976;73.248;2024-03-23T11:31:56;12.77;;;6.20;;
63818;SDS011;49970;54.976;73.248;2024-03-23T11:34:24;19.77;;;6.57;;
63818;SDS011;49970;54.976;73.248;2024-03-23T11:36:50;11.23;;;5.85;;
63818;SDS011;49970;54.976;73.248;2024-03-23T11:39:30;14.45;;;7.22;;
63818;SDS011;49970;54.976;73.248;2024-03-23T11:41:56;12.32;;;7.57;;
63818;SDS011;49970;54.976;73.248;2024-03-23T11:44:23;8.73;;;6.30;;
63818;SDS011;49970;54.976;73.248;2024-03-23T11:46:52;7.20;;;5.35;;
63818;SDS011;49970;54.976;73.248;2024-03-23T11:49:22;12.20;;;6.00;;
63818;SDS011;49970;54.976;73.248;2024-03-23T11:51:49;10.10;;;5.22;;
63818;SDS011;49970;54.976;73.248;2024-03-23T11:54:19;12.45;;;6.15;;
63818;SDS011;49970;54.976;73.248;2024-03-23T11:57:00;11.15;;;5.55;;
63818;SDS011;49970;54.976;73.248;2024-03-23T11:59:37;14.23;;;5.55;;
63818;SDS011;49970;54.976;73.248;2024-03-23T12:02:12;8.13;;;5.05;;
63818;SDS011;49970;54.976;73.248;2024-03-23T12:04:42;17.55;;;7.07;;
63818;SDS011;49970;54.976;73.248;2024-03-23T12:07:29;37.25;;;18.40;;
63818;SDS011;49970;54.976;73.248;2024-03-23T12:10:04;25.17;;;11.55;;
63818;SDS011;49970;54.976;73.248;2024-03-23T12:12:34;17.08;;;9.60;;
63818;SDS011;49970;54.976;73.248;2024-03-23T12:15:04;13.25;;;6.88;;
63818;SDS011;49970;54.976;73.248;2024-03-23T12:17:48;15.45;;;6.60;;
63818;SDS011;49970;54.976;73.248;2024-03-23T12:20:33;14.18;;;6.38;;
63818;SDS011;49970;54.976;73.248;2024-03-23T12:23:15;10.95;;;5.53;;
63818;SDS011;49970;54.976;73.248;2024-03-23T12:25:54;7.20;;;4.55;;
63818;SDS011;49970;54.976;73.248;2024-03-23T12:28:20;13.70;;;5.45;;
63818;SDS011;49970;54.976;73.248;2024-03-23T12:30:47;8.85;;;4.78;;
63818;SDS011;49970;54.976;73.248;2024-03-23T12:33:13;12.80;;;6.00;;
63818;SDS011;49970;54.976;73.248;2024-03-23T12:35:39;9.80;;;5.07;;
63818;SDS011;49970;54.976;73.248;2024-03-23T12:38:06;11.60;;;5.93;;
63818;SDS011;49970;54.976;73.248;2024-03-23T12:40:32;9.45;;;4.95;;
63818;SDS011;49970;54.976;73.248;2024-03-23T12:43:19;21.25;;;7.07;;
63818;SDS011;49970;54.976;73.248;2024-03-23T12:45:48;22.77;;;9.05;;
63818;SDS011;49970;54.976;73.248;2024-03-23T12:48:15;13.68;;;7.72;;
63818;SDS011;49970;54.976;73.248;2024-03-23T12:50:42;21.58;;;12.90;;
63818;SDS011;49970;54.976;73.248;2024-03-23T12:53:08;18.85;;;13.70;;
63818;SDS011;49970;54.976;73.248;2024-03-23T12:55:55;36.95;;;21.23;;
63818;SDS011;49970;54.976;73.248;2024-03-23T12:58:22;38.03;;;21.20;;
63818;SDS011;49970;54.976;73.248;2024-03-23T13:01:08;35.85;;;20.50;;
63818;SDS011;49970;54.976;73.248;2024-03-23T13:03:35;23.67;;;13.50;;
63818;SDS011;49970;54.976;73.248;2024-03-23T13:06:20;39.00;;;26.15;;
63818;SDS011;49970;54.976;73.248;2024-03-23T13:08:46;21.63;;;13.02;;
63818;SDS011;49970;54.976;73.248;2024-03-23T13:11:15;12.20;;;7.45;;
63818;SDS011;49970;54.976;73.248;2024-03-23T13:13:42;13.13;;;5.70;;
63818;SDS011;49970;54.976;73.248;2024-03-23T13:16:08;13.20;;;6.97;;
63818;SDS011;49970;54.976;73.248;2024-03-23T13:18:54;18.60;;;6.05;;
63818;SDS011;49970;54.976;73.248;2024-03-23T13:21:20;14.55;;;5.90;;
63818;SDS011;49970;54.976;73.248;2024-03-23T13:24:07;18.75;;;5.00;;
63818;SDS011;49970;54.976;73.248;2024-03-23T13:26:33;5.85;;;4.72;;
63818;SDS011;49970;54.976;73.248;2024-03-23T13:29:13;9.60;;;5.13;;
63818;SDS011;49970;54.976;73.248;2024-03-23T13:33:18;16.73;;;4.53;;
63818;SDS011;49970;54.976;73.248;2024-03-23T13:36:49;7.95;;;4.03;;
63818;SDS011;49970;54.976;73.248;2024-03-23T13:40:49;8.60;;;4.15;;
63818;SDS011;49970;54.976;73.248;2024-03-23T13:44:13;8.07;;;4.30;;
63818;SDS011;49970;54.976;73.248;2024-03-23T13:46:51;6.07;;;4.22;;
63818;SDS011;49970;54.976;73.248;2024-03-23T13:49:24;8.05;;;4.38;;
63818;SDS011;49970;54.976;73.248;2024-03-23T13:52:00;17.58;;;5.32;;
63818;SDS011;49970;54.976;73.248;2024-03-23T13:54:26;10.73;;;5.05;;
63818;SDS011;49970;54.976;73.248;2024-03-23T13:57:13;14.88;;;5.32;;
63818;SDS011;49970;54.976;73.248;2024-03-23T13:59:39;15.55;;;4.63;;
63818;SDS011;49970;54.976;73.248;2024-03-23T14:02:05;7.68;;;4.60;;
63818;SDS011;49970;54.976;73.248;2024-03-23T14:04:32;10.35;;;5.18;;
63818;SDS011;49970;54.976;73.248;2024-03-23T14:06:58;10.32;;;4.60;;
63818;SDS011;49970;54.976;73.248;2024-03-23T14:09:24;9.80;;;5.28;;
63818;SDS011;49970;54.976;73.248;2024-03-23T14:11:51;12.98;;;4.80;;
63818;SDS011;49970;54.976;73.248;2024-03-23T14:14:18;9.20;;;5.28;;
63818;SDS011;49970;54.976;73.248;2024-03-23T14:16:44;14.40;;;6.18;;
63818;SDS011;49970;54.976;73.248;2024-03-23T14:19:10;14.05;;;7.35;;
63818;SDS011;49970;54.976;73.248;2024-03-23T14:21:37;16.58;;;7.20;;
63818;SDS011;49970;54.976;73.248;2024-03-23T14:24:04;14.63;;;6.43;;
63818;SDS011;49970;54.976;73.248;2024-03-23T14:26:30;13.20;;;5.13;;
63818;SDS011;49970;54.976;73.248;2024-03-23T14:28:56;12.35;;;5.32;;
63818;SDS011;49970;54.976;73.248;2024-03-23T14:31:23;9.75;;;4.75;;
63818;SDS011;49970;54.976;73.248;2024-03-23T14:33:52;16.23;;;6.32;;
63818;SDS011;49970;54.976;73.248;2024-03-23T14:36:18;8.65;;;6.25;;
63818;SDS011;49970;54.976;73.248;2024-03-23T14:38:48;9.40;;;4.90;;
63818;SDS011;49970;54.976;73.248;2024-03-23T14:41:14;6.30;;;4.45;;
63818;SDS011;49970;54.976;73.248;2024-03-23T14:43:41;7.10;;;4.25;;
63818;SDS011;49970;54.976;73.248;2024-03-23T14:46:13;12.95;;;4.78;;
63818;SDS011;49970;54.976;73.248;2024-03-23T14:48:41;8.52;;;5.30;;
63818;SDS011;49970;54.976;73.248;2024-03-23T14:51:10;14.52;;;5.03;;
63818;SDS011;49970;54.976;73.248;2024-03-23T14:53:37;9.00;;;5.32;;
63818;SDS011;49970;54.976;73.248;2024-03-23T14:56:06;15.23;;;4.63;;
63818;SDS011;49970;54.976;73.248;2024-03-23T14:58:38;8.88;;;4.65;;
63818;SDS011;49970;54.976;73.248;2024-03-23T15:01:05;6.60;;;4.75;;
63818;SDS011;49970;54.976;73.248;2024-03-23T15:03:38;14.77;;;7.13;;
63818;SDS011;49970;54.976;73.248;2024-03-23T15:06:05;9.90;;;6.40;;
63818;SDS011;49970;54.976;73.248;2024-03-23T15:08:32;7.75;;;5.60;;
63818;SDS011;49970;54.976;73.248;2024-03-23T15:10:59;6.93;;;4.72;;
63818;SDS011;49970;54.976;73.248;2024-03-23T15:13:26;8.98;;;5.53;;
63818;SDS011;49970;54.976;73.248;2024-03-23T15:15:52;6.70;;;4.65;;
63818;SDS011;49970;54.976;73.248;2024-03-23T15:18:18;9.50;;;5.75;;
63818;SDS011;49970;54.976;73.248;2024-03-23T15:20:55;11.88;;;6.47;;
63818;SDS011;49970;54.976;73.248;2024-03-23T15:23:23;7.38;;;5.03;;
63818;SDS011;49970;54.976;73.248;2024-03-23T15:25:56;5.53;;;4.88;;
63818;SDS011;49970;54.976;73.248;2024-03-23T15:28:23;14.98;;;6.57;;
63818;SDS011;49970;54.976;73.248;2024-03-23T15:30:52;9.02;;;5.50;;
63818;SDS011;49970;54.976;73.248;2024-03-23T15:33:19;11.27;;;5.63;;
63818;SDS011;49970;54.976;73.248;2024-03-23T15:35:45;16.75;;;7.57;;
63818;SDS011;49970;54.976;73.248;2024-03-23T15:38:12;8.35;;;5.72;;
63818;SDS011;49970;54.976;73.248;2024-03-23T15:40:38;14.07;;;6.43;;
63818;SDS011;49970;54.976;73.248;2024-03-23T15:43:04;9.95;;;5.05;;
63818;SDS011;49970;54.976;73.248;2024-03-23T15:45:31;10.05;;;6.05;;
63818;SDS011;49970;54.976;73.248;2024-03-23T15:47:58;10.93;;;5.60;;
63818;SDS011;49970;54.976;73.248;2024-03-23T15:50:24;11.35;;;5.05;;
63818;SDS011;49970;54.976;73.248;2024-03-23T15:52:50;8.95;;;5.65;;
63818;SDS011;49970;54.976;73.248;2024-03-23T15:55:17;8.98;;;5.32;;
63818;SDS011;49970;54.976;73.248;2024-03-23T15:57:43;11.55;;;6.00;;
63818;SDS011;49970;54.976;73.248;2024-03-23T16:00:10;11.23;;;5.45;;
63818;SDS011;49970;54.976;73.248;2024-03-23T16:02:39;23.17;;;6.13;;
63818;SDS011;49970;54.976;73.248;2024-03-23T16:05:06;14.77;;;6.25;;
63818;SDS011;49970;54.976;73.248;2024-03-23T16:07:37;9.48;;;5.30;;
63818;SDS011;49970;54.976;73.248;2024-03-23T16:10:08;13.48;;;6.20;;
63818;SDS011;49970;54.976;73.248;2024-03-23T16:12:36;11.38;;;5.88;;
63818;SDS011;49970;54.976;73.248;2024-03-23T16:15:02;15.00;;;5.32;;
63818;SDS011;49970;54.976;73.248;2024-03-23T16:17:31;13.98;;;6.68;;
63818;SDS011;49970;54.976;73.248;2024-03-23T16:20:20;19.13;;;6.30;;
63818;SDS011;49970;54.976;73.248;2024-03-23T16:22:47;12.18;;;6.03;;
63818;SDS011;49970;54.976;73.248;2024-03-23T16:25:13;12.63;;;6.28;;